sensor_id;sensor_type;location;lat;lon;timestamp;P1;durP1;ratioP1;P2;durP2;ratioP2
56399;SDS011;42298;53.638;9.876;2023-04-24T00:00:36;11.30;;;7.50;;
56399;SDS011;42298;53.638;9.876;2023-04-24T00:03:03;14.82;;;8.10;;
56399;SDS011;42298;53.638;9.876;2023-04-24T00:05:28;12.45;;;7.70;;
56399;SDS011;42298;53.638;9.876;2023-04-24T00:07:54;14.32;;;8.75;;
56399;SDS011;42298;53.638;9.876;2023-04-24T00:10:20;12.60;;;7.75;;
56399;SDS011;42298;53.638;9.876;2023-04-24T00:12:46;13.32;;;7.95;;
56399;SDS011;42298;53.638;9.876;2023-04-24T00:15:11;11.23;;;7.80;;
56399;SDS011;42298;53.638;9.876;2023-04-24T00:17:37;13.60;;;7.82;;
56399;SDS011;42298;53.638;9.876;2023-04-24T00:20:03;12.57;;;7.45;;
56399;SDS011;42298;53.638;9.876;2023-04-24T00:22:31;11.57;;;7.20;;
56399;SDS011;42298;53.638;9.876;2023-04-24T00:24:57;12.35;;;8.40;;
56399;SDS011;42298;53.638;9.876;2023-04-24T00:27:23;12.52;;;7.55;;
56399;SDS011;42298;53.638;9.876;2023-04-24T00:29:48;12.13;;;7.85;;
56399;SDS011;42298;53.638;9.876;2023-04-24T00:32:14;14.57;;;7.90;;
56399;SDS011;42298;53.638;9.876;2023-04-24T00:34:40;10.77;;;7.10;;
56399;SDS011;42298;53.638;9.876;2023-04-24T00:37:06;11.20;;;7.13;;
56399;SDS011;42298;53.638;9.876;2023-04-24T00:39:31;12.70;;;7.60;;
56399;SDS011;42298;53.638;9.876;2023-04-24T00:41:57;11.38;;;7.82;;
56399;SDS011;42298;53.638;9.876;2023-04-24T00:44:22;10.52;;;6.75;;
56399;SDS011;42298;53.638;9.876;2023-04-24T00:46:48;13.30;;;8.35;;
56399;SDS011;42298;53.638;9.876;2023-04-24T00:49:20;11.82;;;7.22;;
56399;SDS011;42298;53.638;9.876;2023-04-24T00:51:46;11.13;;;7.47;;
56399;SDS011;42298;53.638;9.876;2023-04-24T00:54:12;12.85;;;8.35;;
56399;SDS011;42298;53.638;9.876;2023-04-24T00:56:38;12.15;;;8.48;;
56399;SDS011;42298;53.638;9.876;2023-04-24T00:59:04;11.55;;;7.82;;
56399;SDS011;42298;53.638;9.876;2023-04-24T01:01:29;12.27;;;7.97;;
56399;SDS011;42298;53.638;9.876;2023-04-24T01:03:55;13.88;;;8.40;;
56399;SDS011;42298;53.638;9.876;2023-04-24T01:06:22;11.85;;;8.27;;
56399;SDS011;42298;53.638;9.876;2023-04-24T01:08:51;11.98;;;8.50;;
56399;SDS011;42298;53.638;9.876;2023-04-24T01:11:16;12.18;;;7.78;;
56399;SDS011;42298;53.638;9.876;2023-04-24T01:13:42;11.80;;;6.82;;
56399;SDS011;42298;53.638;9.876;2023-04-24T01:16:08;11.80;;;7.20;;
56399;SDS011;42298;53.638;9.876;2023-04-24T01:18:33;11.15;;;7.20;;
56399;SDS011;42298;53.638;9.876;2023-04-24T01:20:59;11.63;;;6.82;;
56399;SDS011;42298;53.638;9.876;2023-04-24T01:23:28;10.40;;;6.38;;
56399;SDS011;42298;53.638;9.876;2023-04-24T01:25:53;11.02;;;6.60;;
56399;SDS011;42298;53.638;9.876;2023-04-24T01:28:20;10.15;;;6.38;;
56399;SDS011;42298;53.638;9.876;2023-04-24T01:30:47;8.30;;;5.28;;
56399;SDS011;42298;53.638;9.876;2023-04-24T01:33:13;7.85;;;5.00;;
56399;SDS011;42298;53.638;9.876;2023-04-24T01:35:38;10.38;;;5.50;;
56399;SDS011;42298;53.638;9.876;2023-04-24T01:38:05;9.70;;;5.65;;
56399;SDS011;42298;53.638;9.876;2023-04-24T01:40:31;8.63;;;4.88;;
56399;SDS011;42298;53.638;9.876;2023-04-24T01:42:56;7.65;;;4.70;;
56399;SDS011;42298;53.638;9.876;2023-04-24T01:45:22;7.72;;;4.90;;
56399;SDS011;42298;53.638;9.876;2023-04-24T01:47:48;8.15;;;4.60;;
56399;SDS011;42298;53.638;9.876;2023-04-24T01:50:15;7.82;;;4.60;;
56399;SDS011;42298;53.638;9.876;2023-04-24T01:52:41;7.28;;;4.20;;
56399;SDS011;42298;53.638;9.876;2023-04-24T01:55:07;7.50;;;4.03;;
56399;SDS011;42298;53.638;9.876;2023-04-24T01:57:32;7.03;;;4.25;;
56399;SDS011;42298;53.638;9.876;2023-04-24T01:59:59;7.78;;;4.70;;
56399;SDS011;42298;53.638;9.876;2023-04-24T02:02:24;7.28;;;4.13;;
56399;SDS011;42298;53.638;9.876;2023-04-24T02:04:52;6.15;;;3.78;;
56399;SDS011;42298;53.638;9.876;2023-04-24T02:07:21;6.03;;;4.05;;
56399;SDS011;42298;53.638;9.876;2023-04-24T02:09:47;6.55;;;3.58;;
56399;SDS011;42298;53.638;9.876;2023-04-24T02:12:13;6.13;;;3.67;;
56399;SDS011;42298;53.638;9.876;2023-04-24T02:14:39;4.57;;;3.17;;
56399;SDS011;42298;53.638;9.876;2023-04-24T02:17:05;4.35;;;3.10;;
56399;SDS011;42298;53.638;9.876;2023-04-24T02:19:31;5.47;;;3.35;;
56399;SDS011;42298;53.638;9.876;2023-04-24T02:21:57;5.03;;;3.20;;
56399;SDS011;42298;53.638;9.876;2023-04-24T02:24:22;5.13;;;3.42;;
56399;SDS011;42298;53.638;9.876;2023-04-24T02:26:47;4.22;;;2.85;;
56399;SDS011;42298;53.638;9.876;2023-04-24T02:29:12;5.13;;;3.22;;
56399;SDS011;42298;53.638;9.876;2023-04-24T02:31:38;4.05;;;3.08;;
56399;SDS011;42298;53.638;9.876;2023-04-24T02:34:03;3.97;;;2.95;;
56399;SDS011;42298;53.638;9.876;2023-04-24T02:36:29;5.05;;;3.03;;
56399;SDS011;42298;53.638;9.876;2023-04-24T02:38:55;3.88;;;2.70;;
56399;SDS011;42298;53.638;9.876;2023-04-24T02:41:20;3.78;;;2.75;;
56399;SDS011;42298;53.638;9.876;2023-04-24T02:43:45;4.60;;;2.90;;
56399;SDS011;42298;53.638;9.876;2023-04-24T02:46:11;6.18;;;2.55;;
56399;SDS011;42298;53.638;9.876;2023-04-24T02:48:36;3.15;;;2.58;;
56399;SDS011;42298;53.638;9.876;2023-04-24T02:51:02;5.05;;;2.42;;
56399;SDS011;42298;53.638;9.876;2023-04-24T02:53:28;5.10;;;2.40;;
56399;SDS011;42298;53.638;9.876;2023-04-24T02:55:55;3.95;;;2.63;;
56399;SDS011;42298;53.638;9.876;2023-04-24T02:58:21;4.60;;;2.50;;
56399;SDS011;42298;53.638;9.876;2023-04-24T03:00:46;3.13;;;2.50;;
56399;SDS011;42298;53.638;9.876;2023-04-24T03:03:12;5.60;;;2.70;;
56399;SDS011;42298;53.638;9.876;2023-04-24T03:05:38;3.05;;;2.40;;
56399;SDS011;42298;53.638;9.876;2023-04-24T03:08:04;4.20;;;2.55;;
56399;SDS011;42298;53.638;9.876;2023-04-24T03:10:29;5.05;;;2.92;;
56399;SDS011;42298;53.638;9.876;2023-04-24T03:12:55;4.65;;;2.83;;
56399;SDS011;42298;53.638;9.876;2023-04-24T03:15:20;6.15;;;2.90;;
56399;SDS011;42298;53.638;9.876;2023-04-24T03:17:45;3.40;;;2.47;;
56399;SDS011;42298;53.638;9.876;2023-04-24T03:20:11;5.13;;;3.25;;
56399;SDS011;42298;53.638;9.876;2023-04-24T03:22:37;3.30;;;2.90;;
56399;SDS011;42298;53.638;9.876;2023-04-24T03:25:02;3.20;;;2.45;;
56399;SDS011;42298;53.638;9.876;2023-04-24T03:27:27;5.55;;;3.20;;
56399;SDS011;42298;53.638;9.876;2023-04-24T03:29:53;5.32;;;3.03;;
56399;SDS011;42298;53.638;9.876;2023-04-24T03:32:20;5.53;;;2.72;;
56399;SDS011;42298;53.638;9.876;2023-04-24T03:34:50;4.10;;;2.90;;
56399;SDS011;42298;53.638;9.876;2023-04-24T03:37:15;4.32;;;2.95;;
56399;SDS011;42298;53.638;9.876;2023-04-24T03:39:41;4.80;;;2.90;;
56399;SDS011;42298;53.638;9.876;2023-04-24T03:42:07;5.72;;;3.38;;
56399;SDS011;42298;53.638;9.876;2023-04-24T03:44:33;4.72;;;3.05;;
56399;SDS011;42298;53.638;9.876;2023-04-24T03:46:59;2.97;;;2.60;;
56399;SDS011;42298;53.638;9.876;2023-04-24T03:49:24;6.03;;;3.20;;
56399;SDS011;42298;53.638;9.876;2023-04-24T03:51:50;3.10;;;2.53;;
56399;SDS011;42298;53.638;9.876;2023-04-24T03:54:17;2.87;;;2.33;;
56399;SDS011;42298;53.638;9.876;2023-04-24T03:56:42;4.53;;;2.67;;
56399;SDS011;42298;53.638;9.876;2023-04-24T03:59:07;5.35;;;2.60;;
56399;SDS011;42298;53.638;9.876;2023-04-24T04:01:33;4.07;;;2.80;;
56399;SDS011;42298;53.638;9.876;2023-04-24T04:04:02;4.10;;;2.53;;
56399;SDS011;42298;53.638;9.876;2023-04-24T04:06:28;4.10;;;2.90;;
56399;SDS011;42298;53.638;9.876;2023-04-24T04:08:53;4.40;;;2.70;;
56399;SDS011;42298;53.638;9.876;2023-04-24T04:11:19;3.93;;;2.57;;
56399;SDS011;42298;53.638;9.876;2023-04-24T04:13:44;4.93;;;2.90;;
56399;SDS011;42298;53.638;9.876;2023-04-24T04:16:12;5.03;;;3.03;;
56399;SDS011;42298;53.638;9.876;2023-04-24T04:18:38;3.57;;;2.50;;
56399;SDS011;42298;53.638;9.876;2023-04-24T04:21:04;4.13;;;2.90;;
56399;SDS011;42298;53.638;9.876;2023-04-24T04:23:30;3.60;;;2.80;;
56399;SDS011;42298;53.638;9.876;2023-04-24T04:25:58;4.40;;;2.70;;
56399;SDS011;42298;53.638;9.876;2023-04-24T04:28:23;3.37;;;2.63;;
56399;SDS011;42298;53.638;9.876;2023-04-24T04:30:50;4.70;;;3.07;;
56399;SDS011;42298;53.638;9.876;2023-04-24T04:33:18;3.20;;;2.50;;
56399;SDS011;42298;53.638;9.876;2023-04-24T04:35:45;4.47;;;2.40;;
56399;SDS011;42298;53.638;9.876;2023-04-24T04:38:14;4.20;;;2.50;;
56399;SDS011;42298;53.638;9.876;2023-04-24T04:40:43;3.77;;;2.40;;
56399;SDS011;42298;53.638;9.876;2023-04-24T04:43:08;3.03;;;2.50;;
56399;SDS011;42298;53.638;9.876;2023-04-24T04:45:35;3.47;;;2.30;;
56399;SDS011;42298;53.638;9.876;2023-04-24T04:48:00;5.00;;;2.50;;
56399;SDS011;42298;53.638;9.876;2023-04-24T04:50:27;2.83;;;2.00;;
56399;SDS011;42298;53.638;9.876;2023-04-24T04:52:52;3.05;;;2.20;;
56399;SDS011;42298;53.638;9.876;2023-04-24T04:55:18;2.80;;;2.15;;
56399;SDS011;42298;53.638;9.876;2023-04-24T04:57:45;2.67;;;2.00;;
56399;SDS011;42298;53.638;9.876;2023-04-24T05:00:11;3.13;;;2.25;;
56399;SDS011;42298;53.638;9.876;2023-04-24T05:02:40;2.25;;;2.00;;
56399;SDS011;42298;53.638;9.876;2023-04-24T05:05:06;3.03;;;2.10;;
56399;SDS011;42298;53.638;9.876;2023-04-24T05:07:32;2.78;;;2.20;;
56399;SDS011;42298;53.638;9.876;2023-04-24T05:09:57;2.65;;;1.80;;
56399;SDS011;42298;53.638;9.876;2023-04-24T05:12:23;3.95;;;2.20;;
56399;SDS011;42298;53.638;9.876;2023-04-24T05:14:49;1.95;;;1.75;;
56399;SDS011;42298;53.638;9.876;2023-04-24T05:17:15;2.55;;;1.95;;
56399;SDS011;42298;53.638;9.876;2023-04-24T05:19:41;3.47;;;2.17;;
56399;SDS011;42298;53.638;9.876;2023-04-24T05:22:06;2.97;;;1.95;;
56399;SDS011;42298;53.638;9.876;2023-04-24T05:24:32;3.80;;;1.60;;
56399;SDS011;42298;53.638;9.876;2023-04-24T05:26:59;1.48;;;1.38;;
56399;SDS011;42298;53.638;9.876;2023-04-24T05:29:24;4.32;;;1.83;;
56399;SDS011;42298;53.638;9.876;2023-04-24T05:31:51;2.45;;;1.55;;
56399;SDS011;42298;53.638;9.876;2023-04-24T05:34:17;3.38;;;1.42;;
56399;SDS011;42298;53.638;9.876;2023-04-24T05:36:42;4.60;;;1.55;;
56399;SDS011;42298;53.638;9.876;2023-04-24T05:39:08;3.38;;;1.70;;
56399;SDS011;42298;53.638;9.876;2023-04-24T05:41:33;2.67;;;1.58;;
56399;SDS011;42298;53.638;9.876;2023-04-24T05:43:59;1.60;;;1.50;;
56399;SDS011;42298;53.638;9.876;2023-04-24T05:46:25;2.28;;;1.80;;
56399;SDS011;42298;53.638;9.876;2023-04-24T05:48:50;2.42;;;1.80;;
56399;SDS011;42298;53.638;9.876;2023-04-24T05:51:15;2.33;;;1.70;;
56399;SDS011;42298;53.638;9.876;2023-04-24T05:53:41;3.15;;;1.50;;
56399;SDS011;42298;53.638;9.876;2023-04-24T05:56:06;1.65;;;1.50;;
56399;SDS011;42298;53.638;9.876;2023-04-24T05:58:31;2.92;;;1.63;;
56399;SDS011;42298;53.638;9.876;2023-04-24T06:00:57;2.50;;;1.33;;
56399;SDS011;42298;53.638;9.876;2023-04-24T06:03:23;1.42;;;1.33;;
56399;SDS011;42298;53.638;9.876;2023-04-24T06:05:50;1.50;;;1.30;;
56399;SDS011;42298;53.638;9.876;2023-04-24T06:08:16;4.25;;;1.60;;
56399;SDS011;42298;53.638;9.876;2023-04-24T06:10:41;3.28;;;1.60;;
56399;SDS011;42298;53.638;9.876;2023-04-24T06:13:06;2.80;;;1.70;;
56399;SDS011;42298;53.638;9.876;2023-04-24T06:15:33;1.65;;;1.45;;
56399;SDS011;42298;53.638;9.876;2023-04-24T06:17:58;3.38;;;1.73;;
56399;SDS011;42298;53.638;9.876;2023-04-24T06:20:24;2.15;;;1.70;;
56399;SDS011;42298;53.638;9.876;2023-04-24T06:22:50;4.22;;;2.13;;
56399;SDS011;42298;53.638;9.876;2023-04-24T06:25:15;3.75;;;1.80;;
56399;SDS011;42298;53.638;9.876;2023-04-24T06:27:41;2.38;;;1.70;;
56399;SDS011;42298;53.638;9.876;2023-04-24T06:30:06;3.20;;;1.60;;
56399;SDS011;42298;53.638;9.876;2023-04-24T06:32:32;2.58;;;1.83;;
56399;SDS011;42298;53.638;9.876;2023-04-24T06:34:59;2.35;;;1.70;;
56399;SDS011;42298;53.638;9.876;2023-04-24T06:37:24;3.28;;;1.88;;
56399;SDS011;42298;53.638;9.876;2023-04-24T06:39:51;4.57;;;2.08;;
56399;SDS011;42298;53.638;9.876;2023-04-24T06:42:16;3.75;;;1.73;;
56399;SDS011;42298;53.638;9.876;2023-04-24T06:44:42;2.03;;;1.70;;
56399;SDS011;42298;53.638;9.876;2023-04-24T06:47:08;2.83;;;1.77;;
56399;SDS011;42298;53.638;9.876;2023-04-24T06:49:35;4.03;;;2.00;;
56399;SDS011;42298;53.638;9.876;2023-04-24T06:52:02;2.75;;;2.05;;
56399;SDS011;42298;53.638;9.876;2023-04-24T06:54:28;3.83;;;2.00;;
56399;SDS011;42298;53.638;9.876;2023-04-24T06:56:54;2.38;;;1.75;;
56399;SDS011;42298;53.638;9.876;2023-04-24T06:59:20;3.95;;;2.20;;
56399;SDS011;42298;53.638;9.876;2023-04-24T07:01:45;3.13;;;2.20;;
56399;SDS011;42298;53.638;9.876;2023-04-24T07:04:11;3.47;;;2.15;;
56399;SDS011;42298;53.638;9.876;2023-04-24T07:06:38;3.15;;;2.17;;
56399;SDS011;42298;53.638;9.876;2023-04-24T07:09:04;4.13;;;2.13;;
56399;SDS011;42298;53.638;9.876;2023-04-24T07:11:29;4.57;;;2.30;;
56399;SDS011;42298;53.638;9.876;2023-04-24T07:13:55;2.28;;;1.80;;
56399;SDS011;42298;53.638;9.876;2023-04-24T07:16:20;5.18;;;2.58;;
56399;SDS011;42298;53.638;9.876;2023-04-24T07:18:46;3.75;;;2.45;;
56399;SDS011;42298;53.638;9.876;2023-04-24T07:21:11;3.55;;;2.60;;
56399;SDS011;42298;53.638;9.876;2023-04-24T07:23:38;5.45;;;2.58;;
56399;SDS011;42298;53.638;9.876;2023-04-24T07:26:06;4.05;;;2.60;;
56399;SDS011;42298;53.638;9.876;2023-04-24T07:28:32;3.60;;;2.75;;
56399;SDS011;42298;53.638;9.876;2023-04-24T07:30:57;4.07;;;2.97;;
56399;SDS011;42298;53.638;9.876;2023-04-24T07:33:24;4.53;;;3.05;;
56399;SDS011;42298;53.638;9.876;2023-04-24T07:35:50;4.43;;;3.10;;
56399;SDS011;42298;53.638;9.876;2023-04-24T07:38:17;5.55;;;3.28;;
56399;SDS011;42298;53.638;9.876;2023-04-24T07:40:45;4.47;;;3.15;;
56399;SDS011;42298;53.638;9.876;2023-04-24T07:43:10;6.40;;;4.00;;
56399;SDS011;42298;53.638;9.876;2023-04-24T07:45:36;6.07;;;3.80;;
56399;SDS011;42298;53.638;9.876;2023-04-24T07:48:02;5.43;;;3.88;;
56399;SDS011;42298;53.638;9.876;2023-04-24T07:50:28;5.03;;;3.60;;
56399;SDS011;42298;53.638;9.876;2023-04-24T07:52:53;6.50;;;3.80;;
56399;SDS011;42298;53.638;9.876;2023-04-24T07:55:18;4.35;;;3.30;;
56399;SDS011;42298;53.638;9.876;2023-04-24T07:57:44;6.32;;;4.13;;
56399;SDS011;42298;53.638;9.876;2023-04-24T08:00:10;7.10;;;4.03;;
56399;SDS011;42298;53.638;9.876;2023-04-24T08:02:37;5.57;;;4.00;;
56399;SDS011;42298;53.638;9.876;2023-04-24T08:05:03;7.97;;;4.57;;
56399;SDS011;42298;53.638;9.876;2023-04-24T08:07:28;5.47;;;4.10;;
56399;SDS011;42298;53.638;9.876;2023-04-24T08:09:54;6.10;;;4.47;;
56399;SDS011;42298;53.638;9.876;2023-04-24T08:12:19;7.30;;;5.00;;
56399;SDS011;42298;53.638;9.876;2023-04-24T08:14:44;7.22;;;4.90;;
56399;SDS011;42298;53.638;9.876;2023-04-24T08:17:10;7.13;;;4.95;;
56399;SDS011;42298;53.638;9.876;2023-04-24T08:19:35;7.03;;;4.57;;
56399;SDS011;42298;53.638;9.876;2023-04-24T08:22:01;6.28;;;4.10;;
56399;SDS011;42298;53.638;9.876;2023-04-24T08:24:26;9.70;;;3.80;;
56399;SDS011;42298;53.638;9.876;2023-04-24T08:26:51;4.22;;;2.97;;
56399;SDS011;42298;53.638;9.876;2023-04-24T08:29:19;4.60;;;2.92;;
56399;SDS011;42298;53.638;9.876;2023-04-24T08:31:44;4.10;;;2.78;;
56399;SDS011;42298;53.638;9.876;2023-04-24T08:34:10;6.50;;;3.30;;
56399;SDS011;42298;53.638;9.876;2023-04-24T08:36:35;5.70;;;3.25;;
56399;SDS011;42298;53.638;9.876;2023-04-24T08:39:02;3.45;;;2.80;;
56399;SDS011;42298;53.638;9.876;2023-04-24T08:41:27;3.85;;;3.03;;
56399;SDS011;42298;53.638;9.876;2023-04-24T08:43:53;4.25;;;3.30;;
56399;SDS011;42298;53.638;9.876;2023-04-24T08:46:20;5.93;;;3.60;;
56399;SDS011;42298;53.638;9.876;2023-04-24T08:48:46;5.85;;;3.75;;
56399;SDS011;42298;53.638;9.876;2023-04-24T08:51:11;6.10;;;4.05;;
56399;SDS011;42298;53.638;9.876;2023-04-24T08:53:37;8.10;;;4.40;;
56399;SDS011;42298;53.638;9.876;2023-04-24T08:56:03;9.05;;;5.30;;
56399;SDS011;42298;53.638;9.876;2023-04-24T08:58:29;8.18;;;5.22;;
56399;SDS011;42298;53.638;9.876;2023-04-24T09:00:55;9.60;;;5.47;;
56399;SDS011;42298;53.638;9.876;2023-04-24T09:03:21;8.35;;;5.40;;
56399;SDS011;42298;53.638;9.876;2023-04-24T09:05:47;9.75;;;5.93;;
56399;SDS011;42298;53.638;9.876;2023-04-24T09:08:14;8.52;;;5.55;;
56399;SDS011;42298;53.638;9.876;2023-04-24T09:10:42;9.80;;;6.18;;
56399;SDS011;42298;53.638;9.876;2023-04-24T09:13:09;11.00;;;6.18;;
56399;SDS011;42298;53.638;9.876;2023-04-24T09:15:35;9.57;;;6.35;;
56399;SDS011;42298;53.638;9.876;2023-04-24T09:18:01;9.90;;;6.78;;
56399;SDS011;42298;53.638;9.876;2023-04-24T09:20:27;10.18;;;6.82;;
56399;SDS011;42298;53.638;9.876;2023-04-24T09:22:56;10.57;;;6.63;;
56399;SDS011;42298;53.638;9.876;2023-04-24T09:25:22;11.88;;;7.40;;
56399;SDS011;42298;53.638;9.876;2023-04-24T09:27:48;11.80;;;7.18;;
56399;SDS011;42298;53.638;9.876;2023-04-24T09:30:14;12.95;;;7.03;;
56399;SDS011;42298;53.638;9.876;2023-04-24T09:32:46;10.00;;;6.47;;
56399;SDS011;42298;53.638;9.876;2023-04-24T09:35:12;10.88;;;6.93;;
56399;SDS011;42298;53.638;9.876;2023-04-24T09:37:40;10.00;;;6.65;;
56399;SDS011;42298;53.638;9.876;2023-04-24T09:40:09;11.07;;;6.90;;
56399;SDS011;42298;53.638;9.876;2023-04-24T09:42:45;9.77;;;6.38;;
56399;SDS011;42298;53.638;9.876;2023-04-24T09:45:16;9.98;;;6.00;;
56399;SDS011;42298;53.638;9.876;2023-04-24T09:47:41;9.85;;;6.78;;
56399;SDS011;42298;53.638;9.876;2023-04-24T09:50:10;10.10;;;5.90;;
56399;SDS011;42298;53.638;9.876;2023-04-24T09:52:40;11.52;;;5.97;;
56399;SDS011;42298;53.638;9.876;2023-04-24T09:55:13;11.32;;;6.30;;
56399;SDS011;42298;53.638;9.876;2023-04-24T09:57:50;10.93;;;6.45;;
56399;SDS011;42298;53.638;9.876;2023-04-24T10:00:29;10.48;;;6.53;;
56399;SDS011;42298;53.638;9.876;2023-04-24T10:03:01;10.95;;;6.72;;
56399;SDS011;42298;53.638;9.876;2023-04-24T10:05:31;12.93;;;6.75;;
56399;SDS011;42298;53.638;9.876;2023-04-24T10:08:02;10.93;;;6.72;;
56399;SDS011;42298;53.638;9.876;2023-04-24T10:10:32;12.45;;;7.70;;
56399;SDS011;42298;53.638;9.876;2023-04-24T10:13:00;10.57;;;7.28;;
56399;SDS011;42298;53.638;9.876;2023-04-24T10:15:26;12.30;;;6.78;;
56399;SDS011;42298;53.638;9.876;2023-04-24T10:17:52;12.75;;;8.30;;
56399;SDS011;42298;53.638;9.876;2023-04-24T10:20:22;11.15;;;8.10;;
56399;SDS011;42298;53.638;9.876;2023-04-24T10:22:50;11.70;;;8.00;;
56399;SDS011;42298;53.638;9.876;2023-04-24T10:25:17;12.40;;;7.38;;
56399;SDS011;42298;53.638;9.876;2023-04-24T10:27:44;14.77;;;8.40;;
56399;SDS011;42298;53.638;9.876;2023-04-24T10:30:11;14.15;;;8.65;;
56399;SDS011;42298;53.638;9.876;2023-04-24T10:32:37;14.68;;;8.57;;
56399;SDS011;42298;53.638;9.876;2023-04-24T10:35:06;14.88;;;9.27;;
56399;SDS011;42298;53.638;9.876;2023-04-24T10:37:45;12.98;;;9.38;;
56399;SDS011;42298;53.638;9.876;2023-04-24T10:40:25;13.07;;;9.35;;
56399;SDS011;42298;53.638;9.876;2023-04-24T10:43:07;13.82;;;10.07;;
56399;SDS011;42298;53.638;9.876;2023-04-24T10:45:36;15.65;;;10.63;;
56399;SDS011;42298;53.638;9.876;2023-04-24T10:48:02;13.50;;;9.13;;
56399;SDS011;42298;53.638;9.876;2023-04-24T10:50:44;14.38;;;9.38;;
56399;SDS011;42298;53.638;9.876;2023-04-24T10:53:15;15.30;;;10.32;;
56399;SDS011;42298;53.638;9.876;2023-04-24T10:55:45;14.88;;;10.30;;
56399;SDS011;42298;53.638;9.876;2023-04-24T10:58:22;14.20;;;9.52;;
56399;SDS011;42298;53.638;9.876;2023-04-24T11:00:59;15.30;;;9.95;;
56399;SDS011;42298;53.638;9.876;2023-04-24T11:03:26;15.23;;;10.50;;
56399;SDS011;42298;53.638;9.876;2023-04-24T11:05:57;22.98;;;10.70;;
56399;SDS011;42298;53.638;9.876;2023-04-24T11:08:28;17.35;;;10.85;;
56399;SDS011;42298;53.638;9.876;2023-04-24T11:19:01;14.68;;;10.55;;
56399;SDS011;42298;53.638;9.876;2023-04-24T11:21:31;15.57;;;11.00;;
56399;SDS011;42298;53.638;9.876;2023-04-24T11:24:21;15.20;;;10.18;;
56399;SDS011;42298;53.638;9.876;2023-04-24T11:26:57;14.77;;;10.82;;
56399;SDS011;42298;53.638;9.876;2023-04-24T11:32:24;15.25;;;11.00;;
56399;SDS011;42298;53.638;9.876;2023-04-24T11:35:18;15.88;;;9.98;;
56399;SDS011;42298;53.638;9.876;2023-04-24T11:37:50;15.65;;;10.10;;
56399;SDS011;42298;53.638;9.876;2023-04-24T11:40:17;14.25;;;9.88;;
56399;SDS011;42298;53.638;9.876;2023-04-24T11:42:53;15.35;;;10.93;;
56399;SDS011;42298;53.638;9.876;2023-04-24T11:45:24;14.70;;;10.38;;
56399;SDS011;42298;53.638;9.876;2023-04-24T11:47:51;15.13;;;9.80;;
56399;SDS011;42298;53.638;9.876;2023-04-24T11:50:19;15.13;;;10.07;;
56399;SDS011;42298;53.638;9.876;2023-04-24T11:52:48;13.65;;;9.85;;
56399;SDS011;42298;53.638;9.876;2023-04-24T11:57:39;17.15;;;10.80;;
56399;SDS011;42298;53.638;9.876;2023-04-24T12:00:14;14.18;;;9.80;;
56399;SDS011;42298;53.638;9.876;2023-04-24T12:02:41;14.25;;;9.82;;
56399;SDS011;42298;53.638;9.876;2023-04-24T12:05:06;14.00;;;9.50;;
56399;SDS011;42298;53.638;9.876;2023-04-24T12:07:32;13.13;;;9.40;;
56399;SDS011;42298;53.638;9.876;2023-04-24T12:10:07;13.27;;;9.05;;
56399;SDS011;42298;53.638;9.876;2023-04-24T12:12:34;15.35;;;8.88;;
56399;SDS011;42298;53.638;9.876;2023-04-24T12:15:00;11.73;;;7.47;;
56399;SDS011;42298;53.638;9.876;2023-04-24T12:17:32;12.98;;;8.00;;
56399;SDS011;42298;53.638;9.876;2023-04-24T12:20:02;15.48;;;8.10;;
56399;SDS011;42298;53.638;9.876;2023-04-24T12:25:10;11.13;;;7.78;;
56399;SDS011;42298;53.638;9.876;2023-04-24T12:27:36;14.40;;;8.07;;
56399;SDS011;42298;53.638;9.876;2023-04-24T12:30:03;11.82;;;7.25;;
56399;SDS011;42298;53.638;9.876;2023-04-24T12:32:29;11.45;;;7.05;;
56399;SDS011;42298;53.638;9.876;2023-04-24T12:34:55;12.70;;;7.13;;
56399;SDS011;42298;53.638;9.876;2023-04-24T12:37:22;12.45;;;7.68;;
56399;SDS011;42298;53.638;9.876;2023-04-24T12:40:07;11.65;;;7.18;;
56399;SDS011;42298;53.638;9.876;2023-04-24T12:42:35;13.93;;;7.03;;
56399;SDS011;42298;53.638;9.876;2023-04-24T12:45:06;11.40;;;7.40;;
56399;SDS011;42298;53.638;9.876;2023-04-24T12:47:33;12.02;;;7.45;;
56399;SDS011;42298;53.638;9.876;2023-04-24T12:49:59;12.05;;;8.07;;
56399;SDS011;42298;53.638;9.876;2023-04-24T12:52:25;14.05;;;8.77;;
56399;SDS011;42298;53.638;9.876;2023-04-24T12:54:52;12.45;;;8.00;;
56399;SDS011;42298;53.638;9.876;2023-04-24T12:57:19;12.60;;;8.23;;
56399;SDS011;42298;53.638;9.876;2023-04-24T12:59:45;11.18;;;7.50;;
56399;SDS011;42298;53.638;9.876;2023-04-24T13:02:10;11.68;;;7.22;;
56399;SDS011;42298;53.638;9.876;2023-04-24T13:04:36;11.13;;;7.75;;
56399;SDS011;42298;53.638;9.876;2023-04-24T13:07:01;12.88;;;7.90;;
56399;SDS011;42298;53.638;9.876;2023-04-24T13:09:27;10.65;;;7.45;;
56399;SDS011;42298;53.638;9.876;2023-04-24T13:11:54;11.75;;;8.00;;
56399;SDS011;42298;53.638;9.876;2023-04-24T13:14:19;13.50;;;8.25;;
56399;SDS011;42298;53.638;9.876;2023-04-24T13:16:45;11.38;;;7.72;;
56399;SDS011;42298;53.638;9.876;2023-04-24T13:19:10;9.77;;;6.63;;
56399;SDS011;42298;53.638;9.876;2023-04-24T13:21:35;10.50;;;6.65;;
56399;SDS011;42298;53.638;9.876;2023-04-24T13:24:01;12.10;;;7.55;;
56399;SDS011;42298;53.638;9.876;2023-04-24T13:26:26;11.40;;;7.57;;
56399;SDS011;42298;53.638;9.876;2023-04-24T13:28:51;9.68;;;7.03;;
56399;SDS011;42298;53.638;9.876;2023-04-24T13:31:17;9.65;;;6.95;;
56399;SDS011;42298;53.638;9.876;2023-04-24T13:33:44;11.40;;;7.25;;
56399;SDS011;42298;53.638;9.876;2023-04-24T13:36:09;10.65;;;7.35;;
56399;SDS011;42298;53.638;9.876;2023-04-24T13:38:34;10.02;;;6.65;;
56399;SDS011;42298;53.638;9.876;2023-04-24T13:41:00;10.80;;;7.13;;
56399;SDS011;42298;53.638;9.876;2023-04-24T13:43:25;10.80;;;8.00;;
56399;SDS011;42298;53.638;9.876;2023-04-24T13:45:51;12.25;;;7.68;;
56399;SDS011;42298;53.638;9.876;2023-04-24T13:48:16;10.45;;;7.47;;
56399;SDS011;42298;53.638;9.876;2023-04-24T13:50:42;11.18;;;7.47;;
56399;SDS011;42298;53.638;9.876;2023-04-24T13:53:07;10.40;;;6.65;;
56399;SDS011;42298;53.638;9.876;2023-04-24T13:55:33;13.00;;;7.35;;
56399;SDS011;42298;53.638;9.876;2023-04-24T13:57:58;9.88;;;6.93;;
56399;SDS011;42298;53.638;9.876;2023-04-24T14:00:23;11.02;;;7.30;;
56399;SDS011;42298;53.638;9.876;2023-04-24T14:02:49;10.90;;;7.57;;
56399;SDS011;42298;53.638;9.876;2023-04-24T14:05:15;11.60;;;7.07;;
56399;SDS011;42298;53.638;9.876;2023-04-24T14:07:40;11.57;;;7.45;;
56399;SDS011;42298;53.638;9.876;2023-04-24T14:10:06;9.38;;;6.55;;
56399;SDS011;42298;53.638;9.876;2023-04-24T14:12:32;11.18;;;6.82;;
56399;SDS011;42298;53.638;9.876;2023-04-24T14:14:57;12.88;;;7.78;;
56399;SDS011;42298;53.638;9.876;2023-04-24T14:17:24;11.98;;;8.40;;
56399;SDS011;42298;53.638;9.876;2023-04-24T14:19:49;14.85;;;9.20;;
56399;SDS011;42298;53.638;9.876;2023-04-24T14:22:16;11.57;;;8.48;;
56399;SDS011;42298;53.638;9.876;2023-04-24T14:24:42;11.32;;;8.35;;
56399;SDS011;42298;53.638;9.876;2023-04-24T14:27:07;12.18;;;8.63;;
56399;SDS011;42298;53.638;9.876;2023-04-24T14:29:32;12.02;;;9.48;;
56399;SDS011;42298;53.638;9.876;2023-04-24T14:32:00;13.02;;;10.05;;
56399;SDS011;42298;53.638;9.876;2023-04-24T14:34:25;14.52;;;10.63;;
56399;SDS011;42298;53.638;9.876;2023-04-24T14:36:51;14.02;;;10.30;;
56399;SDS011;42298;53.638;9.876;2023-04-24T14:39:17;14.80;;;10.32;;
56399;SDS011;42298;53.638;9.876;2023-04-24T14:41:43;16.05;;;10.75;;
56399;SDS011;42298;53.638;9.876;2023-04-24T14:44:08;14.65;;;10.90;;
56399;SDS011;42298;53.638;9.876;2023-04-24T14:46:33;13.90;;;10.40;;
56399;SDS011;42298;53.638;9.876;2023-04-24T14:48:59;13.60;;;11.20;;
56399;SDS011;42298;53.638;9.876;2023-04-24T14:51:25;15.00;;;11.38;;
56399;SDS011;42298;53.638;9.876;2023-04-24T14:53:50;14.25;;;11.80;;